Nearby METAR Reports

 

KMTN - Baltimore/Martin, Maryland, USA
Distance from station: SSE 8mi, 13km
Updated: Fri, 28-Nov-2014 8:45pm EST
Partly cloudy
Partly cloudy
 Wind from calm
Wind: Calm
Temperature: 30°F , -1°C
Dew Point: 21°F , -6°C
Humidity: 69%
Barometer: 30.32 inHg , 1026.8 hPa
Clouds: Partly cloudy
Visibility: 10 miles , 16 km
Cloud details: Partly cloudy 12000 ft
2014/11/29 01:45 KMTN 290145Z 00000KT 10SM SCT120 M01/M06 A3032
KDMH - Baltimore/Dwntwn, Maryland, USA
Distance from station: SW 12mi, 19km
Updated: Fri, 28-Nov-2014 8:54pm EST

 
Temperature: 34°F , 1°C
Dew Point: 16°F , -9°C
Humidity: 48%
Barometer: 30.31 inHg , 1026.4 hPa
2014/11/29 01:54 KDMH 290154Z AUTO 01/M09 A3031 RMK AO1 SLP263 T00061089
 
KBWI - Balto/Wash Intl, Maryland, USA
Distance from station: SSW 20mi, 33km
Updated: Fri, 28-Nov-2014 8:54pm EST
Few Clouds
Few Clouds
 Wind from calm
Wind: Calm
Temperature: 27°F , -3°C
Dew Point: 19°F , -7°C
Humidity: 74%
Barometer: 30.29 inHg , 1025.7 hPa
Clouds: Few Clouds
Visibility: 10 miles , 16 km
Cloud details: Few Clouds 25000 ft
2014/11/29 01:54 KBWI 290154Z 00000KT 10SM FEW250 M03/M07 A3029 RMK AO2 SLP260 T10281067
KDMW - Carroll Cnty, Maryland, USA
Distance from station: WNW 30mi, 48km
Updated: Fri, 28-Nov-2014 8:55pm EST
Partly cloudy
Partly cloudy
 Wind from NW
Wind: NW 3 mph , 6 km/h
Temperature: 27°F , -3°C
Dew Point: 16°F , -9°C
Humidity: 64%
Barometer: 30.25 inHg , 1024.4 hPa
Clouds: Partly cloudy
Visibility: 10 miles , 16 km
Cloud details: Partly cloudy 9000 ft
2014/11/29 01:55 KDMW 290155Z AUTO 31003KT 10SM SCT090 M03/M09 A3025 RMK AO2
 
KNAK - Annapolis/Naval, Maryland, USA
Distance from station: S 30mi, 48km
Updated: Fri, 28-Nov-2014 8:54pm EST
Clear
Clear
 Wind from calm
Wind: Calm
Temperature: 30°F , -1°C
Dew Point: 18°F , -8°C
Humidity: 59%
Barometer: 30.31 inHg , 1026.4 hPa
Clouds: Clear
Visibility: 10 miles , 16 km
2014/11/29 01:54 KNAK 290154Z AUTO 00000KT 10SM CLR M01/M08 A3031 RMK AO2 SLP266 T10061078
KW29 - Stevensville, Maryland, USA
Distance from station: SSE 31mi, 50km
Updated: Fri, 28-Nov-2014 8:55pm EST

 Wind from NW
Wind: NW 3 mph , 6 km/h
Temperature: 34°F , 1°C
Dew Point: 19°F , -7°C
Humidity: 56%
Barometer: 30.31 inHg , 1026.4 hPa
Visibility: 10 miles , 16 km
2014/11/29 01:55 KW29 290155Z AUTO 31003KT 10SM 01/M07 A3031 RMK AO1
 
KCGS - College Park, Maryland, USA
Distance from station: SW 38mi, 61km
Updated: Fri, 28-Nov-2014 8:55pm EST
Clear
Clear
 Wind from calm
Wind: Calm
Temperature: 30°F , -1°C
Dew Point: 23°F , -5°C
Humidity: 75%
Barometer: 30.30 inHg , 1026.1 hPa
Clouds: Clear
Visibility: 10 miles , 16 km
2014/11/29 01:55 KCGS 290155Z AUTO 00000KT 10SM CLR M01/M05 A3030 RMK AO1
KGAI - Gaithersburg, Maryland, USA
Distance from station: WSW 40mi, 65km
Updated: Fri, 28-Nov-2014 8:55pm EST
Clear
Clear
 Wind from calm
Wind: Calm
Temperature: 27°F , -3°C
Dew Point: 18°F , -8°C
Humidity: 69%
Barometer: 30.31 inHg , 1026.4 hPa
Clouds: Clear
Visibility: 10 miles , 16 km
2014/11/29 01:55 KGAI 290155Z 00000KT 10SM CLR M03/M08 A3031 RMK AO1
 
KTHV - York, Pennsylvania, USA
Distance from station: NNW 40mi, 65km
Updated: Fri, 28-Nov-2014 8:53pm EST
Clear
Clear
 Wind from calm
Wind: Calm
Temperature: 23°F , -5°C
Dew Point: 16°F , -9°C
Humidity: 74%
Barometer: 30.26 inHg , 1024.7 hPa
Clouds: Clear
Visibility: 10 miles , 16 km
2014/11/29 01:53 KTHV 290153Z AUTO 00000KT 10SM CLR M05/M09 A3026 RMK AO2 SLP256 T10501094
KFDK - Frederick, Maryland, USA
Distance from station: W 47mi, 75km
Updated: Fri, 28-Nov-2014 8:55pm EST
Clear
Clear
 Wind from calm
Wind: Calm
Temperature: 32°F , 0°C
Dew Point: 18°F , -8°C
Humidity: 55%
Barometer: 30.31 inHg , 1026.4 hPa
Clouds: Clear
Visibility: 10 miles , 16 km
2014/11/29 01:55 KFDK 290155Z AUTO 00000KT 10SM CLR 00/M08 A3031 RMK AO2
 
KESN - Easton/Newnam, Maryland, USA
Distance from station: SSE 48mi, 78km
Updated: Fri, 28-Nov-2014 5:50pm EST
NOT Current
Clear
Clear
 Wind from calm
Wind: Calm
Temperature: 36°F , 2°C
Dew Point: 19°F , -7°C
Humidity: 52%
Barometer: 30.31 inHg , 1026.4 hPa
Clouds: Clear
Visibility: 10 miles , 16 km
2014/11/28 22:50 KESN 282250Z 00000KT 10SM SKC 02/M07 A3031
KDCA - Washington/Natl, Washington D.c., USA
Distance from station: SW 49mi, 79km
Updated: Fri, 28-Nov-2014 8:52pm EST
Few Clouds
Few Clouds
 Wind from NW
Wind: NW 5 mph , 7 km/h
Temperature: 36°F , 2°C
Wind Chill: 32°F , 0°C
Dew Point: 18°F , -8°C
Humidity: 48%
Barometer: 30.31 inHg , 1026.4 hPa
Clouds: Few Clouds
Visibility: 10 miles , 16 km
Cloud details: Few Clouds 25000 ft
2014/11/29 01:52 KDCA 290152Z 32004KT 10SM FEW250 02/M08 A3031 RMK AO2 SLP262 T00221083
 
KLNS - Lancaster, Pennsylvania, USA
Distance from station: N 49mi, 79km
Updated: Fri, 28-Nov-2014 8:53pm EST
Clear
Clear
 Wind from W
Wind: W 5 mph , 7 km/h
Temperature: 27°F , -3°C
Wind Chill: 21°F , -6°C
Dew Point: 14°F , -10°C
Humidity: 59%
Barometer: 30.27 inHg , 1025.1 hPa
Clouds: Clear
Visibility: 10 miles , 16 km
2014/11/29 01:53 KLNS 290153Z 26004KT 10SM CLR M03/M10 A3027 RMK AO2 SLP255 T10331100
KILG - Wilmington, Delaware, USA
Distance from station: ENE 50mi, 81km
Updated: Fri, 28-Nov-2014 8:51pm EST
Clear
Clear
 Wind from W
Wind: W 5 mph , 7 km/h
Temperature: 28°F , -2°C
Wind Chill: 22°F , -6°C
Dew Point: 18°F , -8°C
Humidity: 64%
Barometer: 30.30 inHg , 1026.1 hPa
Clouds: Clear
Visibility: 10 miles , 16 km
2014/11/29 01:51 KILG 290151Z AUTO 28004KT 10SM CLR M02/M08 A3030 RMK AO2 SLP261 T10171078